Orbital elements of FENGYUN 1C DEB
| Launched | 9 May 1999 |
| Flight ended | – |
| Launch site | Taiyuan Space Center, PRC |
| Owner | People's Republic of China |
| NORAD ID | 30454 |
| Date fetched |
Epoch osculation |
Inc. [°] |
Ecc. | RA asc node [hr] |
Arg Peri. [°] |
Mean anom [°] |
Mean motion [rev/day] |
Abs. mag |
| Date fetched |
Epoch osculation |
Inc. [°] |
Ecc. | RA asc node [hr] |
Arg Peri. [°] |
Mean anom [°] |
Mean motion [rev/day] |
Abs. mag |
| 2026 May 05 17:57 | 2026 May 05 10:29:55 | 98.1368 | 0.01684 | 5.8955 | 135.6195 | 350.8112 | 14.17279 | – |
| 2026 May 04 17:57 | 2026 Apr 30 08:38:03 | 98.1358 | 0.01676 | 5.5853 | 150.4474 | 350.8112 | 14.17279 | – |
| 2026 May 03 17:57 | 2026 Apr 30 08:38:03 | 98.1358 | 0.01676 | 5.5853 | 150.4474 | 350.8112 | 14.17279 | – |
| 2026 May 02 17:57 | 2026 Apr 30 08:38:03 | 98.1358 | 0.01676 | 5.5853 | 150.4474 | 350.8112 | 14.17279 | – |
| 2026 May 01 17:56 | 2026 Apr 30 08:38:03 | 98.1358 | 0.01676 | 5.5853 | 150.4474 | 350.8112 | 14.17279 | – |
| 2026 Apr 30 17:56 | 2026 Apr 30 08:38:03 | 98.1358 | 0.01676 | 5.5853 | 150.4474 | 350.8112 | 14.17279 | – |
| 2026 Apr 29 17:57 | 2026 Apr 24 03:05:22 | 98.1363 | 0.01667 | 5.2047 | 168.7782 | 350.8112 | 14.17279 | – |
| 2026 Apr 28 17:56 | 2026 Apr 24 03:05:22 | 98.1363 | 0.01667 | 5.2047 | 168.7782 | 350.8112 | 14.17279 | – |
| 2026 Apr 27 17:58 | 2026 Apr 24 03:05:22 | 98.1363 | 0.01667 | 5.2047 | 168.7782 | 350.8112 | 14.17279 | – |
| 2026 Apr 26 17:58 | 2026 Apr 24 03:05:22 | 98.1363 | 0.01667 | 5.2047 | 168.7782 | 350.8112 | 14.17279 | – |
| 2026 Apr 25 17:58 | 2026 Apr 24 03:05:22 | 98.1363 | 0.01667 | 5.2047 | 168.7782 | 350.8112 | 14.17279 | – |
| 2026 Apr 24 17:59 | 2026 Apr 24 03:05:22 | 98.1363 | 0.01667 | 5.2047 | 168.7782 | 350.8112 | 14.17279 | – |
| 2026 Apr 23 17:57 | 2026 Apr 19 04:15:47 | 98.1372 | 0.01661 | 4.9023 | 183.4052 | 350.8112 | 14.17279 | – |
| 2026 Apr 22 17:57 | 2026 Apr 19 04:15:47 | 98.1372 | 0.01661 | 4.9023 | 183.4052 | 350.8112 | 14.17279 | – |
| 2026 Apr 21 17:57 | 2026 Apr 19 04:15:47 | 98.1372 | 0.01661 | 4.9023 | 183.4052 | 350.8112 | 14.17279 | – |
| 2026 Apr 20 17:57 | 2026 Apr 19 04:15:47 | 98.1372 | 0.01661 | 4.9023 | 183.4052 | 350.8112 | 14.17279 | – |
| 2026 Apr 19 17:58 | 2026 Apr 19 04:15:47 | 98.1372 | 0.01661 | 4.9023 | 183.4052 | 350.8112 | 14.17279 | – |
| 2026 Apr 18 17:56 | 2026 Apr 12 21:29:00 | 98.1361 | 0.01656 | 4.5186 | 202.0484 | 350.8112 | 14.17279 | – |
| 2026 Apr 16 17:57 | 2026 Apr 12 21:29:00 | 98.1361 | 0.01656 | 4.5186 | 202.0484 | 350.8112 | 14.17279 | – |
| 2026 Apr 14 17:57 | 2026 Apr 12 21:29:00 | 98.1361 | 0.01656 | 4.5186 | 202.0484 | 350.8112 | 14.17279 | – |
| 2026 Apr 13 17:57 | 2026 Apr 12 21:29:00 | 98.1361 | 0.01656 | 4.5186 | 202.0484 | 350.8112 | 14.17279 | – |
| 2026 Apr 12 17:57 | 2026 Apr 08 09:39:53 | 98.1371 | 0.01655 | 4.2442 | 215.4315 | 350.8112 | 14.17279 | – |
| 2026 Apr 11 17:57 | 2026 Apr 08 09:39:53 | 98.1371 | 0.01655 | 4.2442 | 215.4315 | 350.8112 | 14.17279 | – |
| 2026 Apr 10 17:58 | 2026 Apr 08 09:39:53 | 98.1371 | 0.01655 | 4.2442 | 215.4315 | 350.8112 | 14.17279 | – |
| 2026 Apr 09 18:01 | 2026 Apr 08 09:39:53 | 98.1371 | 0.01655 | 4.2442 | 215.4315 | 350.8112 | 14.17279 | – |
| 2026 Apr 08 17:57 | 2026 Apr 08 09:39:53 | 98.1371 | 0.01655 | 4.2442 | 215.4315 | 350.8112 | 14.17279 | – |